sensor_id;sensor_type;location;lat;lon;timestamp;pressure;altitude;pressure_sealevel;temperature;humidity
64023;BME280;50264;52.088;5.296;2023-03-23T00:01:12;100126.0;;;12.18;95.06
64023;BME280;50264;52.088;5.296;2023-03-23T00:02:49;100126.0;;;12.24;95.37
64023;BME280;50264;52.088;5.296;2023-03-23T00:04:25;100110.0;;;12.21;94.73
64023;BME280;50264;52.088;5.296;2023-03-23T00:07:38;100097.0;;;12.22;94.36
64023;BME280;50264;52.088;5.296;2023-03-23T00:09:15;100096.0;;;12.16;95.12
64023;BME280;50264;52.088;5.296;2023-03-23T00:10:51;100103.0;;;12.31;95.45
64023;BME280;50264;52.088;5.296;2023-03-23T00:14:08;100100.0;;;12.31;94.36
64023;BME280;50264;52.088;5.296;2023-03-23T00:15:46;100109.0;;;12.34;94.65
64023;BME280;50264;52.088;5.296;2023-03-23T00:17:22;100109.0;;;12.43;93.72
64023;BME280;50264;52.088;5.296;2023-03-23T00:20:38;100109.0;;;12.38;93.2
64023;BME280;50264;52.088;5.296;2023-03-23T00:22:16;100106.0;;;12.36;93.54
64023;BME280;50264;52.088;5.296;2023-03-23T00:23:53;100112.0;;;12.37;92.8
64023;BME280;50264;52.088;5.296;2023-03-23T00:25:29;100105.0;;;12.35;93.15
64023;BME280;50264;52.088;5.296;2023-03-23T00:28:41;100101.0;;;12.28;94.41
64023;BME280;50264;52.088;5.296;2023-03-23T00:30:18;100106.0;;;12.36;92.32
64023;BME280;50264;52.088;5.296;2023-03-23T00:31:53;100102.0;;;12.41;92.09
64023;BME280;50264;52.088;5.296;2023-03-23T00:35:09;100098.0;;;12.42;92.63
64023;BME280;50264;52.088;5.296;2023-03-23T00:36:46;100094.0;;;12.35;91.63
64023;BME280;50264;52.088;5.296;2023-03-23T00:38:23;100098.0;;;12.27;92.45
64023;BME280;50264;52.088;5.296;2023-03-23T00:40:00;100092.0;;;12.39;91.23
64023;BME280;50264;52.088;5.296;2023-03-23T00:43:13;100085.0;;;12.29;91.23
64023;BME280;50264;52.088;5.296;2023-03-23T00:44:49;100085.0;;;12.34;91.41
64023;BME280;50264;52.088;5.296;2023-03-23T00:46:25;100081.0;;;12.49;90.38
64023;BME280;50264;52.088;5.296;2023-03-23T00:49:37;100075.0;;;12.55;89.75
64023;BME280;50264;52.088;5.296;2023-03-23T00:51:14;100075.0;;;12.54;89.53
64023;BME280;50264;52.088;5.296;2023-03-23T00:52:50;100076.0;;;12.5;89.96
64023;BME280;50264;52.088;5.296;2023-03-23T00:56:04;100067.0;;;12.4;89.86
64023;BME280;50264;52.088;5.296;2023-03-23T00:57:41;100059.0;;;12.46;89.67
64023;BME280;50264;52.088;5.296;2023-03-23T00:59:18;100059.0;;;12.48;89.36
64023;BME280;50264;52.088;5.296;2023-03-23T01:00:54;100060.0;;;12.48;90.49
64023;BME280;50264;52.088;5.296;2023-03-23T01:04:07;100058.0;;;12.42;89.55
64023;BME280;50264;52.088;5.296;2023-03-23T01:05:45;100068.0;;;12.46;89.84
64023;BME280;50264;52.088;5.296;2023-03-23T01:07:22;100059.0;;;12.59;89.16
64023;BME280;50264;52.088;5.296;2023-03-23T01:10:35;100057.0;;;12.51;88.8
64023;BME280;50264;52.088;5.296;2023-03-23T01:12:11;100050.0;;;12.65;88.65
64023;BME280;50264;52.088;5.296;2023-03-23T01:13:47;100051.0;;;12.72;88.42
64023;BME280;50264;52.088;5.296;2023-03-23T01:16:59;100047.0;;;12.72;87.7
64023;BME280;50264;52.088;5.296;2023-03-23T01:18:35;100057.0;;;12.65;87.75
64023;BME280;50264;52.088;5.296;2023-03-23T01:20:14;100070.0;;;12.71;88.33
64023;BME280;50264;52.088;5.296;2023-03-23T01:21:51;100055.0;;;12.53;88.58
64023;BME280;50264;52.088;5.296;2023-03-23T01:25:03;100043.0;;;12.58;88.43
64023;BME280;50264;52.088;5.296;2023-03-23T01:26:40;100035.0;;;12.59;88.09
64023;BME280;50264;52.088;5.296;2023-03-23T01:28:16;100030.0;;;12.52;89.0
64023;BME280;50264;52.088;5.296;2023-03-23T01:31:28;100043.0;;;12.61;88.13
64023;BME280;50264;52.088;5.296;2023-03-23T01:33:04;100034.0;;;12.63;88.69
64023;BME280;50264;52.088;5.296;2023-03-23T01:34:40;100030.0;;;12.59;88.04
64023;BME280;50264;52.088;5.296;2023-03-23T01:37:57;100020.0;;;12.57;88.18
64023;BME280;50264;52.088;5.296;2023-03-23T01:39:33;100022.0;;;12.65;87.65
64023;BME280;50264;52.088;5.296;2023-03-23T01:41:11;100030.0;;;12.59;87.83
64023;BME280;50264;52.088;5.296;2023-03-23T01:42:50;100007.0;;;12.56;87.99
64023;BME280;50264;52.088;5.296;2023-03-23T01:47:01;100016.0;;;12.7;87.18
64023;BME280;50264;52.088;5.296;2023-03-23T01:50:16;100022.0;;;12.83;86.38
64023;BME280;50264;52.088;5.296;2023-03-23T01:51:55;100016.0;;;12.76;87.57
64023;BME280;50264;52.088;5.296;2023-03-23T01:53:37;100027.0;;;12.66;88.18
64023;BME280;50264;52.088;5.296;2023-03-23T01:55:16;100019.0;;;12.67;87.17
64023;BME280;50264;52.088;5.296;2023-03-23T01:58:36;100013.0;;;12.73;87.47
64023;BME280;50264;52.088;5.296;2023-03-23T02:00:14;100012.0;;;12.62;87.81
64023;BME280;50264;52.088;5.296;2023-03-23T02:01:51;100024.0;;;12.63;87.8
64023;BME280;50264;52.088;5.296;2023-03-23T02:05:11;100009.0;;;12.68;86.79
64023;BME280;50264;52.088;5.296;2023-03-23T02:06:49;100019.0;;;12.84;86.24
64023;BME280;50264;52.088;5.296;2023-03-23T02:10:05;100009.0;;;12.66;87.38
64023;BME280;50264;52.088;5.296;2023-03-23T02:13:18;100007.0;;;12.66;87.48
64023;BME280;50264;52.088;5.296;2023-03-23T02:14:55;100008.0;;;12.66;87.74
64023;BME280;50264;52.088;5.296;2023-03-23T02:16:34;100006.0;;;12.62;87.51
64023;BME280;50264;52.088;5.296;2023-03-23T02:18:31;100011.0;;;12.72;86.96
64023;BME280;50264;52.088;5.296;2023-03-23T02:22:27;100014.0;;;12.8;86.65
64023;BME280;50264;52.088;5.296;2023-03-23T02:25:40;99999.0;;;12.67;87.32
64023;BME280;50264;52.088;5.296;2023-03-23T02:27:48;100010.0;;;12.72;86.96
64023;BME280;50264;52.088;5.296;2023-03-23T02:30:10;100008.0;;;12.78;86.53
64023;BME280;50264;52.088;5.296;2023-03-23T02:32:10;100003.0;;;12.75;87.07
64023;BME280;50264;52.088;5.296;2023-03-23T02:33:54;100013.0;;;12.74;86.92
64023;BME280;50264;52.088;5.296;2023-03-23T02:35:35;100010.0;;;12.64;87.42
64023;BME280;50264;52.088;5.296;2023-03-23T02:37:14;100001.0;;;12.73;87.75
64023;BME280;50264;52.088;5.296;2023-03-23T02:40:42;100005.0;;;12.65;87.5
64023;BME280;50264;52.088;5.296;2023-03-23T02:42:24;100003.0;;;12.68;87.1
64023;BME280;50264;52.088;5.296;2023-03-23T02:44:03;100009.0;;;12.72;86.87
64023;BME280;50264;52.088;5.296;2023-03-23T02:45:42;100005.0;;;12.69;87.1
64023;BME280;50264;52.088;5.296;2023-03-23T02:49:02;100005.0;;;12.69;87.38
64023;BME280;50264;52.088;5.296;2023-03-23T02:50:42;100002.0;;;12.81;86.68
64023;BME280;50264;52.088;5.296;2023-03-23T02:52:24;100001.0;;;12.8;86.36
64023;BME280;50264;52.088;5.296;2023-03-23T02:54:04;100005.0;;;12.92;86.02
64023;BME280;50264;52.088;5.296;2023-03-23T02:57:20;100008.0;;;12.87;86.24
64023;BME280;50264;52.088;5.296;2023-03-23T02:58:58;100008.0;;;12.87;85.83
64023;BME280;50264;52.088;5.296;2023-03-23T03:00:35;100003.0;;;12.76;86.19
64023;BME280;50264;52.088;5.296;2023-03-23T03:02:14;100003.0;;;12.86;85.93
64023;BME280;50264;52.088;5.296;2023-03-23T03:05:38;99993.0;;;12.88;85.79
64023;BME280;50264;52.088;5.296;2023-03-23T03:07:36;100005.0;;;12.93;85.35
64023;BME280;50264;52.088;5.296;2023-03-23T03:09:26;99998.0;;;12.88;85.62
64023;BME280;50264;52.088;5.296;2023-03-23T03:11:11;99996.0;;;12.83;85.03
64023;BME280;50264;52.088;5.296;2023-03-23T03:12:55;99998.0;;;12.79;85.58
64023;BME280;50264;52.088;5.296;2023-03-23T03:16:23;100002.0;;;12.82;85.13
64023;BME280;50264;52.088;5.296;2023-03-23T03:18:09;100005.0;;;12.84;85.3
64023;BME280;50264;52.088;5.296;2023-03-23T03:19:49;99997.0;;;12.79;85.12
64023;BME280;50264;52.088;5.296;2023-03-23T03:21:30;99999.0;;;12.84;85.11
64023;BME280;50264;52.088;5.296;2023-03-23T03:23:11;99993.0;;;12.8;85.2
64023;BME280;50264;52.088;5.296;2023-03-23T03:26:28;99995.0;;;12.83;84.63
64023;BME280;50264;52.088;5.296;2023-03-23T03:28:06;99999.0;;;12.83;85.07
64023;BME280;50264;52.088;5.296;2023-03-23T03:29:45;99988.0;;;12.74;85.23
64023;BME280;50264;52.088;5.296;2023-03-23T03:33:04;99994.0;;;12.9;85.15
64023;BME280;50264;52.088;5.296;2023-03-23T03:34:40;99988.0;;;12.87;84.24
64023;BME280;50264;52.088;5.296;2023-03-23T03:36:20;99992.0;;;12.89;84.78
64023;BME280;50264;52.088;5.296;2023-03-23T03:37:57;99986.0;;;12.84;84.4
64023;BME280;50264;52.088;5.296;2023-03-23T03:41:18;99989.0;;;12.89;84.25
64023;BME280;50264;52.088;5.296;2023-03-23T03:42:55;99980.0;;;12.95;83.3
64023;BME280;50264;52.088;5.296;2023-03-23T03:44:32;99974.0;;;12.95;83.67
64023;BME280;50264;52.088;5.296;2023-03-23T03:46:08;99966.0;;;12.95;83.83
64023;BME280;50264;52.088;5.296;2023-03-23T03:49:21;99981.0;;;12.93;84.41
64023;BME280;50264;52.088;5.296;2023-03-23T03:50:57;99982.0;;;13.0;83.91
64023;BME280;50264;52.088;5.296;2023-03-23T03:52:33;99974.0;;;12.98;83.02
64023;BME280;50264;52.088;5.296;2023-03-23T03:55:46;99985.0;;;13.0;83.0
64023;BME280;50264;52.088;5.296;2023-03-23T03:57:23;99970.0;;;13.05;82.95
64023;BME280;50264;52.088;5.296;2023-03-23T03:58:59;99980.0;;;13.12;82.38
64023;BME280;50264;52.088;5.296;2023-03-23T04:02:11;99984.0;;;13.18;82.65
64023;BME280;50264;52.088;5.296;2023-03-23T04:03:47;99980.0;;;13.09;82.44
64023;BME280;50264;52.088;5.296;2023-03-23T04:05:23;99965.0;;;13.16;81.77
64023;BME280;50264;52.088;5.296;2023-03-23T04:08:36;99976.0;;;13.16;81.86
64023;BME280;50264;52.088;5.296;2023-03-23T04:10:13;99985.0;;;13.15;83.22
64023;BME280;50264;52.088;5.296;2023-03-23T04:11:49;99993.0;;;13.07;81.95
64023;BME280;50264;52.088;5.296;2023-03-23T04:13:25;99995.0;;;13.01;82.49
64023;BME280;50264;52.088;5.296;2023-03-23T04:16:38;99983.0;;;12.97;82.22
64023;BME280;50264;52.088;5.296;2023-03-23T04:18:16;99984.0;;;13.13;81.72
64023;BME280;50264;52.088;5.296;2023-03-23T04:19:52;100005.0;;;13.03;82.01
64023;BME280;50264;52.088;5.296;2023-03-23T04:23:06;99988.0;;;13.03;81.91
64023;BME280;50264;52.088;5.296;2023-03-23T04:24:42;99992.0;;;13.05;81.83
64023;BME280;50264;52.088;5.296;2023-03-23T04:26:18;99990.0;;;13.13;82.34
64023;BME280;50264;52.088;5.296;2023-03-23T04:29:30;99992.0;;;13.06;81.53
64023;BME280;50264;52.088;5.296;2023-03-23T04:31:06;99995.0;;;13.07;81.02
64023;BME280;50264;52.088;5.296;2023-03-23T04:32:42;99998.0;;;13.04;81.03
64023;BME280;50264;52.088;5.296;2023-03-23T04:34:19;100003.0;;;13.1;80.83
64023;BME280;50264;52.088;5.296;2023-03-23T04:37:36;100005.0;;;13.0;81.05
64023;BME280;50264;52.088;5.296;2023-03-23T04:39:14;100001.0;;;13.15;81.16
64023;BME280;50264;52.088;5.296;2023-03-23T04:40:51;100011.0;;;13.11;80.77
64023;BME280;50264;52.088;5.296;2023-03-23T04:44:06;100016.0;;;13.19;80.97
64023;BME280;50264;52.088;5.296;2023-03-23T04:45:43;100019.0;;;13.07;80.02
64023;BME280;50264;52.088;5.296;2023-03-23T04:47:20;100031.0;;;13.15;80.3
64023;BME280;50264;52.088;5.296;2023-03-23T04:48:56;100025.0;;;13.18;79.84
64023;BME280;50264;52.088;5.296;2023-03-23T04:52:09;100018.0;;;13.11;80.44
64023;BME280;50264;52.088;5.296;2023-03-23T04:53:45;100019.0;;;12.99;80.58
64023;BME280;50264;52.088;5.296;2023-03-23T04:55:21;100017.0;;;13.05;80.45
64023;BME280;50264;52.088;5.296;2023-03-23T04:58:33;100026.0;;;13.03;80.75
64023;BME280;50264;52.088;5.296;2023-03-23T05:00:11;100015.0;;;12.99;81.02
64023;BME280;50264;52.088;5.296;2023-03-23T05:01:47;100024.0;;;12.89;81.81
64023;BME280;50264;52.088;5.296;2023-03-23T05:04:59;100031.0;;;12.96;81.39
64023;BME280;50264;52.088;5.296;2023-03-23T05:06:35;100025.0;;;12.96;82.44
64023;BME280;50264;52.088;5.296;2023-03-23T05:08:11;100024.0;;;12.92;82.06
64023;BME280;50264;52.088;5.296;2023-03-23T05:11:24;100033.0;;;12.85;82.1
64023;BME280;50264;52.088;5.296;2023-03-23T05:13:00;100032.0;;;12.82;82.08
64023;BME280;50264;52.088;5.296;2023-03-23T05:14:40;100033.0;;;12.8;82.64
64023;BME280;50264;52.088;5.296;2023-03-23T05:16:16;100030.0;;;12.8;83.06
64023;BME280;50264;52.088;5.296;2023-03-23T05:19:28;100030.0;;;12.73;83.61
64023;BME280;50264;52.088;5.296;2023-03-23T05:21:04;100030.0;;;12.75;84.88
64023;BME280;50264;52.088;5.296;2023-03-23T05:22:41;100024.0;;;12.83;84.0
64023;BME280;50264;52.088;5.296;2023-03-23T05:25:54;100020.0;;;12.67;84.89
64023;BME280;50264;52.088;5.296;2023-03-23T05:27:31;100022.0;;;12.67;83.66
64023;BME280;50264;52.088;5.296;2023-03-23T05:29:07;100031.0;;;12.7;83.72
64023;BME280;50264;52.088;5.296;2023-03-23T05:30:43;100045.0;;;12.62;84.49
64023;BME280;50264;52.088;5.296;2023-03-23T05:33:55;100044.0;;;12.6;85.68
64023;BME280;50264;52.088;5.296;2023-03-23T05:37:08;100047.0;;;12.54;87.31
64023;BME280;50264;52.088;5.296;2023-03-23T05:40:21;100042.0;;;12.6;87.77
64023;BME280;50264;52.088;5.296;2023-03-23T05:41:57;100046.0;;;12.48;88.92
64023;BME280;50264;52.088;5.296;2023-03-23T05:43:33;100050.0;;;12.33;89.01
64023;BME280;50264;52.088;5.296;2023-03-23T05:46:47;100053.0;;;12.38;90.09
64023;BME280;50264;52.088;5.296;2023-03-23T05:48:24;100053.0;;;12.51;89.77
64023;BME280;50264;52.088;5.296;2023-03-23T05:50:01;100050.0;;;12.47;89.91
64023;BME280;50264;52.088;5.296;2023-03-23T05:53:13;100055.0;;;12.31;89.62
64023;BME280;50264;52.088;5.296;2023-03-23T05:54:49;100060.0;;;12.37;90.17
64023;BME280;50264;52.088;5.296;2023-03-23T05:56:25;100058.0;;;12.4;90.02
64023;BME280;50264;52.088;5.296;2023-03-23T05:58:01;100063.0;;;12.44;90.18
64023;BME280;50264;52.088;5.296;2023-03-23T06:01:14;100068.0;;;12.32;91.42
64023;BME280;50264;52.088;5.296;2023-03-23T06:02:50;100072.0;;;12.29;93.07
64023;BME280;50264;52.088;5.296;2023-03-23T06:04:30;100073.0;;;12.17;94.44
64023;BME280;50264;52.088;5.296;2023-03-23T06:07:46;100080.0;;;12.08;94.52
64023;BME280;50264;52.088;5.296;2023-03-23T06:09:22;100082.0;;;12.15;95.51
64023;BME280;50264;52.088;5.296;2023-03-23T06:10:58;100063.0;;;12.16;95.38
64023;BME280;50264;52.088;5.296;2023-03-23T06:12:35;100068.0;;;12.08;95.58
64023;BME280;50264;52.088;5.296;2023-03-23T06:15:48;100082.0;;;12.07;96.22
64023;BME280;50264;52.088;5.296;2023-03-23T06:17:24;100091.0;;;12.02;96.32
64023;BME280;50264;52.088;5.296;2023-03-23T06:19:00;100091.0;;;11.96;97.07
64023;BME280;50264;52.088;5.296;2023-03-23T06:22:12;100093.0;;;11.95;97.88
64023;BME280;50264;52.088;5.296;2023-03-23T06:23:49;100099.0;;;12.01;97.65
64023;BME280;50264;52.088;5.296;2023-03-23T06:25:25;100092.0;;;11.8;98.5
64023;BME280;50264;52.088;5.296;2023-03-23T06:28:38;100091.0;;;11.75;99.11
64023;BME280;50264;52.088;5.296;2023-03-23T06:30:14;100096.0;;;11.86;98.91
64023;BME280;50264;52.088;5.296;2023-03-23T06:31:53;100106.0;;;11.86;98.44
64023;BME280;50264;52.088;5.296;2023-03-23T06:33:32;100105.0;;;11.75;99.11
64023;BME280;50264;52.088;5.296;2023-03-23T06:36:47;100108.0;;;11.77;99.81
64023;BME280;50264;52.088;5.296;2023-03-23T06:38:23;100114.0;;;11.81;99.15
64023;BME280;50264;52.088;5.296;2023-03-23T06:39:59;100113.0;;;11.85;99.29
64023;BME280;50264;52.088;5.296;2023-03-23T06:43:12;100115.0;;;11.79;99.43
64023;BME280;50264;52.088;5.296;2023-03-23T06:44:49;100116.0;;;11.85;99.4
64023;BME280;50264;52.088;5.296;2023-03-23T06:46:25;100128.0;;;11.8;98.81
64023;BME280;50264;52.088;5.296;2023-03-23T06:49:37;100119.0;;;11.69;98.76
64023;BME280;50264;52.088;5.296;2023-03-23T06:51:13;100120.0;;;11.73;99.26
64023;BME280;50264;52.088;5.296;2023-03-23T06:52:50;100121.0;;;11.7;98.29
64023;BME280;50264;52.088;5.296;2023-03-23T06:54:27;100139.0;;;11.71;98.25
64023;BME280;50264;52.088;5.296;2023-03-23T06:57:39;100142.0;;;11.78;98.69
64023;BME280;50264;52.088;5.296;2023-03-23T06:59:15;100130.0;;;11.85;99.48
64023;BME280;50264;52.088;5.296;2023-03-23T07:00:53;100134.0;;;11.87;98.63
64023;BME280;50264;52.088;5.296;2023-03-23T07:04:05;100131.0;;;11.88;99.3
64023;BME280;50264;52.088;5.296;2023-03-23T07:05:41;100130.0;;;11.72;98.96
64023;BME280;50264;52.088;5.296;2023-03-23T07:07:22;100125.0;;;11.76;98.92
64023;BME280;50264;52.088;5.296;2023-03-23T07:10:34;100109.0;;;11.74;99.1
64023;BME280;50264;52.088;5.296;2023-03-23T07:12:10;100133.0;;;11.8;99.56
64023;BME280;50264;52.088;5.296;2023-03-23T07:13:46;100155.0;;;11.71;100.0
64023;BME280;50264;52.088;5.296;2023-03-23T07:15:23;100153.0;;;11.8;100.0
64023;BME280;50264;52.088;5.296;2023-03-23T07:18:35;100141.0;;;11.78;99.77
64023;BME280;50264;52.088;5.296;2023-03-23T07:20:11;100141.0;;;11.87;99.61
64023;BME280;50264;52.088;5.296;2023-03-23T07:21:48;100144.0;;;11.9;98.83
64023;BME280;50264;52.088;5.296;2023-03-23T07:25:00;100139.0;;;11.9;97.8
64023;BME280;50264;52.088;5.296;2023-03-23T07:26:36;100155.0;;;11.79;96.0
64023;BME280;50264;52.088;5.296;2023-03-23T07:28:12;100151.0;;;11.72;98.02
64023;BME280;50264;52.088;5.296;2023-03-23T07:31:26;100151.0;;;11.76;97.59
64023;BME280;50264;52.088;5.296;2023-03-23T07:33:04;100155.0;;;11.85;96.16
64023;BME280;50264;52.088;5.296;2023-03-23T07:34:41;100153.0;;;11.99;96.68
64023;BME280;50264;52.088;5.296;2023-03-23T07:36:17;100157.0;;;12.02;97.04
64023;BME280;50264;52.088;5.296;2023-03-23T07:39:29;100165.0;;;12.0;95.54
64023;BME280;50264;52.088;5.296;2023-03-23T07:41:07;100167.0;;;11.97;96.0
64023;BME280;50264;52.088;5.296;2023-03-23T07:42:44;100163.0;;;12.04;96.41
64023;BME280;50264;52.088;5.296;2023-03-23T07:45:58;100159.0;;;12.15;96.83
64023;BME280;50264;52.088;5.296;2023-03-23T07:47:34;100170.0;;;12.07;95.74
64023;BME280;50264;52.088;5.296;2023-03-23T07:49:10;100172.0;;;12.2;95.4
64023;BME280;50264;52.088;5.296;2023-03-23T07:52:23;100173.0;;;12.03;96.83
64023;BME280;50264;52.088;5.296;2023-03-23T07:53:59;100169.0;;;12.13;97.21
64023;BME280;50264;52.088;5.296;2023-03-23T07:55:35;100175.0;;;12.15;96.78
64023;BME280;50264;52.088;5.296;2023-03-23T07:57:11;100174.0;;;12.18;95.96
64023;BME280;50264;52.088;5.296;2023-03-23T08:02:02;100169.0;;;12.14;96.58
64023;BME280;50264;52.088;5.296;2023-03-23T08:03:38;100168.0;;;12.02;97.09
64023;BME280;50264;52.088;5.296;2023-03-23T08:06:51;100165.0;;;12.03;96.15
64023;BME280;50264;52.088;5.296;2023-03-23T08:08:27;100181.0;;;12.12;96.45
64023;BME280;50264;52.088;5.296;2023-03-23T08:10:04;100187.0;;;12.19;95.35
64023;BME280;50264;52.088;5.296;2023-03-23T08:13:18;100190.0;;;12.28;95.11
64023;BME280;50264;52.088;5.296;2023-03-23T08:14:54;100190.0;;;12.16;93.81
64023;BME280;50264;52.088;5.296;2023-03-23T08:16:30;100184.0;;;12.06;94.58
64023;BME280;50264;52.088;5.296;2023-03-23T08:18:06;100186.0;;;12.03;94.52
64023;BME280;50264;52.088;5.296;2023-03-23T08:21:19;100187.0;;;11.99;93.76
64023;BME280;50264;52.088;5.296;2023-03-23T08:22:56;100181.0;;;12.02;95.38
64023;BME280;50264;52.088;5.296;2023-03-23T08:24:32;100180.0;;;12.09;93.14
64023;BME280;50264;52.088;5.296;2023-03-23T08:27:46;100183.0;;;12.25;94.85
64023;BME280;50264;52.088;5.296;2023-03-23T08:29:23;100186.0;;;12.2;93.29
64023;BME280;50264;52.088;5.296;2023-03-23T08:30:59;100186.0;;;12.34;93.18
64023;BME280;50264;52.088;5.296;2023-03-23T08:34:12;100194.0;;;12.53;94.69
64023;BME280;50264;52.088;5.296;2023-03-23T08:35:54;100192.0;;;12.53;92.6
64023;BME280;50264;52.088;5.296;2023-03-23T08:37:32;100197.0;;;12.63;93.07
64023;BME280;50264;52.088;5.296;2023-03-23T08:39:08;100201.0;;;12.52;92.14
64023;BME280;50264;52.088;5.296;2023-03-23T08:42:20;100202.0;;;12.68;93.83
64023;BME280;50264;52.088;5.296;2023-03-23T08:43:56;100199.0;;;12.64;90.67
64023;BME280;50264;52.088;5.296;2023-03-23T08:45:32;100201.0;;;12.62;92.45
64023;BME280;50264;52.088;5.296;2023-03-23T08:48:45;100200.0;;;12.56;90.71
64023;BME280;50264;52.088;5.296;2023-03-23T08:50:24;100195.0;;;12.51;92.75
64023;BME280;50264;52.088;5.296;2023-03-23T08:52:01;100219.0;;;12.59;92.37
64023;BME280;50264;52.088;5.296;2023-03-23T08:55:15;100214.0;;;12.52;92.54
64023;BME280;50264;52.088;5.296;2023-03-23T08:56:52;100216.0;;;12.65;92.1
64023;BME280;50264;52.088;5.296;2023-03-23T08:58:28;100220.0;;;12.72;91.55
64023;BME280;50264;52.088;5.296;2023-03-23T09:00:07;100225.0;;;12.73;91.03
64023;BME280;50264;52.088;5.296;2023-03-23T09:03:21;100221.0;;;12.74;92.11
64023;BME280;50264;52.088;5.296;2023-03-23T09:04:57;100215.0;;;12.82;91.8
64023;BME280;50264;52.088;5.296;2023-03-23T09:06:34;100234.0;;;12.75;88.4
64023;BME280;50264;52.088;5.296;2023-03-23T09:09:47;100231.0;;;12.84;87.93
64023;BME280;50264;52.088;5.296;2023-03-23T09:11:23;100222.0;;;12.95;90.15
64023;BME280;50264;52.088;5.296;2023-03-23T09:12:59;100222.0;;;13.07;88.16
64023;BME280;50264;52.088;5.296;2023-03-23T09:14:36;100221.0;;;13.04;85.41
64023;BME280;50264;52.088;5.296;2023-03-23T09:17:51;100221.0;;;13.1;87.29
64023;BME280;50264;52.088;5.296;2023-03-23T09:21:05;100222.0;;;13.09;84.9
64023;BME280;50264;52.088;5.296;2023-03-23T09:24:21;100224.0;;;13.2;86.21
64023;BME280;50264;52.088;5.296;2023-03-23T09:25:59;100230.0;;;13.15;83.19
64023;BME280;50264;52.088;5.296;2023-03-23T09:27:37;100230.0;;;13.14;83.08
64023;BME280;50264;52.088;5.296;2023-03-23T09:29:14;100208.0;;;13.32;84.39
64023;BME280;50264;52.088;5.296;2023-03-23T09:32:26;100214.0;;;13.41;84.97
64023;BME280;50264;52.088;5.296;2023-03-23T09:34:02;100227.0;;;13.53;83.75
64023;BME280;50264;52.088;5.296;2023-03-23T09:35:39;100227.0;;;13.48;80.55
64023;BME280;50264;52.088;5.296;2023-03-23T09:38:52;100231.0;;;13.46;78.17
64023;BME280;50264;52.088;5.296;2023-03-23T09:40:36;100235.0;;;13.46;80.44
64023;BME280;50264;52.088;5.296;2023-03-23T09:42:30;100237.0;;;13.41;78.58
64023;BME280;50264;52.088;5.296;2023-03-23T09:44:19;100233.0;;;13.44;79.47
64023;BME280;50264;52.088;5.296;2023-03-23T09:46:07;100238.0;;;13.55;77.31
64023;BME280;50264;52.088;5.296;2023-03-23T09:50:10;100235.0;;;13.6;80.31
64023;BME280;50264;52.088;5.296;2023-03-23T09:51:50;100235.0;;;13.48;81.47
64023;BME280;50264;52.088;5.296;2023-03-23T09:53:34;100240.0;;;13.6;78.64
64023;BME280;50264;52.088;5.296;2023-03-23T09:55:14;100241.0;;;13.64;78.95
64023;BME280;50264;52.088;5.296;2023-03-23T09:56:54;100251.0;;;13.62;76.27
64023;BME280;50264;52.088;5.296;2023-03-23T09:58:35;100249.0;;;13.52;78.41
64023;BME280;50264;52.088;5.296;2023-03-23T10:02:11;100253.0;;;13.57;77.52
64023;BME280;50264;52.088;5.296;2023-03-23T10:04:12;100256.0;;;13.5;76.28
64023;BME280;50264;52.088;5.296;2023-03-23T10:05:53;100260.0;;;13.53;76.95
64023;BME280;50264;52.088;5.296;2023-03-23T10:07:30;100267.0;;;13.56;75.67
64023;BME280;50264;52.088;5.296;2023-03-23T10:09:08;100271.0;;;13.51;76.06
64023;BME280;50264;52.088;5.296;2023-03-23T10:12:42;100277.0;;;13.4;74.25
64023;BME280;50264;52.088;5.296;2023-03-23T10:14:32;100274.0;;;13.39;73.55
64023;BME280;50264;52.088;5.296;2023-03-23T10:16:19;100280.0;;;13.42;75.03
64023;BME280;50264;52.088;5.296;2023-03-23T10:18:04;100286.0;;;13.42;75.8
64023;BME280;50264;52.088;5.296;2023-03-23T10:19:52;100293.0;;;13.38;74.78
64023;BME280;50264;52.088;5.296;2023-03-23T10:21:59;100285.0;;;13.39;74.58
64023;BME280;50264;52.088;5.296;2023-03-23T10:23:44;100297.0;;;13.27;73.75
64023;BME280;50264;52.088;5.296;2023-03-23T10:27:18;100286.0;;;13.34;73.41
64023;BME280;50264;52.088;5.296;2023-03-23T10:28:59;100285.0;;;13.53;76.44
64023;BME280;50264;52.088;5.296;2023-03-23T10:30:39;100282.0;;;13.81;74.88
64023;BME280;50264;52.088;5.296;2023-03-23T10:32:19;100298.0;;;13.93;72.91
64023;BME280;50264;52.088;5.296;2023-03-23T10:35:43;100289.0;;;13.97;71.86
64023;BME280;50264;52.088;5.296;2023-03-23T10:37:37;100295.0;;;13.94;70.49
64023;BME280;50264;52.088;5.296;2023-03-23T10:39:18;100290.0;;;14.01;70.62
64023;BME280;50264;52.088;5.296;2023-03-23T10:41:00;100285.0;;;14.04;71.55
64023;BME280;50264;52.088;5.296;2023-03-23T10:42:41;100301.0;;;14.04;72.33
64023;BME280;50264;52.088;5.296;2023-03-23T10:46:01;100294.0;;;14.04;72.25
64023;BME280;50264;52.088;5.296;2023-03-23T10:47:51;100301.0;;;14.13;70.19
64023;BME280;50264;52.088;5.296;2023-03-23T10:49:37;100300.0;;;14.21;69.14
64023;BME280;50264;52.088;5.296;2023-03-23T10:51:16;100294.0;;;14.43;71.38
64023;BME280;50264;52.088;5.296;2023-03-23T10:52:57;100297.0;;;14.6;69.99
64023;BME280;50264;52.088;5.296;2023-03-23T10:56:23;100281.0;;;14.79;69.62
64023;BME280;50264;52.088;5.296;2023-03-23T10:58:03;100295.0;;;15.19;69.97
64023;BME280;50264;52.088;5.296;2023-03-23T10:59:41;100284.0;;;15.31;68.47
64023;BME280;50264;52.088;5.296;2023-03-23T11:01:18;100287.0;;;15.34;63.37
64023;BME280;50264;52.088;5.296;2023-03-23T11:04:37;100293.0;;;15.07;63.42
64023;BME280;50264;52.088;5.296;2023-03-23T11:06:20;100296.0;;;15.17;64.2
64023;BME280;50264;52.088;5.296;2023-03-23T11:07:59;100305.0;;;15.2;62.9
64023;BME280;50264;52.088;5.296;2023-03-23T11:11:16;100308.0;;;15.01;65.09
64023;BME280;50264;52.088;5.296;2023-03-23T11:12:57;100305.0;;;14.99;66.37
64023;BME280;50264;52.088;5.296;2023-03-23T11:14:36;100295.0;;;14.79;65.67
64023;BME280;50264;52.088;5.296;2023-03-23T11:16:22;100303.0;;;14.89;65.08
64023;BME280;50264;52.088;5.296;2023-03-23T11:18:03;100297.0;;;14.88;65.97
64023;BME280;50264;52.088;5.296;2023-03-23T11:21:16;100301.0;;;15.01;64.95